createdAt,value
2019-05-28T00:00:02.919Z,12.51
2019-05-28T00:05:01.241Z,12.46
2019-05-28T00:10:01.535Z,12.49
2019-05-28T00:15:01.859Z,12.4
2019-05-28T00:20:01.971Z,12.4
2019-05-28T00:25:02.108Z,12.34
2019-05-28T00:30:16.339Z,12.29
2019-05-28T00:35:01.855Z,12.2
2019-05-28T00:40:02.752Z,12.06
2019-05-28T00:45:02.024Z,11.94
2019-05-28T00:50:01.288Z,11.79
2019-05-28T00:55:01.461Z,11.67
2019-05-28T01:00:01.649Z,11.53
2019-05-28T01:05:01.866Z,11.43
2019-05-28T01:10:02.144Z,11.29
2019-05-28T01:15:01.740Z,11.18
2019-05-28T01:20:01.877Z,11.11
2019-05-28T01:25:01.987Z,11.02
2019-05-28T01:30:01.121Z,10.89
2019-05-28T01:35:01.462Z,10.85
2019-05-28T01:40:01.591Z,10.82
2019-05-28T01:45:02.015Z,10.8
2019-05-28T01:50:01.117Z,10.79
2019-05-28T01:55:01.304Z,10.79
2019-05-28T02:00:01.478Z,10.8
2019-05-28T02:05:01.625Z,10.82
2019-05-28T02:10:01.766Z,10.83
2019-05-28T02:15:01.953Z,10.84
2019-05-28T02:20:02.069Z,10.8
2019-05-28T02:25:01.214Z,10.79
2019-05-28T02:30:01.322Z,10.79
2019-05-28T02:35:01.566Z,10.74
2019-05-28T02:40:01.548Z,10.74
2019-05-28T02:45:01.675Z,10.75
2019-05-28T02:50:01.809Z,10.71
2019-05-28T02:55:01.963Z,10.72
2019-05-28T03:00:02.006Z,10.8
2019-05-28T03:05:01.114Z,10.79
2019-05-28T03:10:01.202Z,10.84
2019-05-28T03:15:01.405Z,10.87
2019-05-28T03:20:01.514Z,10.87
2019-05-28T03:25:01.662Z,10.86
2019-05-28T03:30:01.805Z,10.85
2019-05-28T03:35:01.945Z,10.89
2019-05-28T03:40:02.071Z,10.88
2019-05-28T03:45:01.177Z,10.89
2019-05-28T03:50:01.272Z,10.92
2019-05-28T03:55:01.418Z,10.9
2019-05-28T04:00:01.542Z,10.92
2019-05-28T04:05:01.667Z,10.93
2019-05-28T04:10:01.824Z,10.97
2019-05-28T04:15:02.025Z,10.99
2019-05-28T04:20:01.123Z,11.01
2019-05-28T04:25:01.217Z,11.11
2019-05-28T04:30:01.378Z,11.1
2019-05-28T04:35:01.681Z,11.12
2019-05-28T04:40:01.257Z,11.14
2019-05-28T04:45:01.406Z,11.16
2019-05-28T04:50:01.505Z,11.18
2019-05-28T04:55:01.399Z,11.22
2019-05-28T05:00:01.498Z,11.22
2019-05-28T05:05:01.601Z,11.2
2019-05-28T05:10:01.743Z,11.19
2019-05-28T05:15:02.278Z,11.24
2019-05-28T05:20:01.708Z,11.25
2019-05-28T05:25:02.107Z,11.26
2019-05-28T05:30:01.311Z,11.3
2019-05-28T05:35:01.468Z,11.44
2019-05-28T05:40:01.727Z,11.62
2019-05-28T05:45:01.835Z,11.81
2019-05-28T05:50:01.940Z,11.97
2019-05-28T05:55:02.185Z,12.14
2019-05-28T06:00:01.346Z,12.36
2019-05-28T06:05:01.466Z,12.61
2019-05-28T06:10:01.629Z,12.84
2019-05-28T06:15:01.949Z,12.89
2019-05-28T06:20:01.147Z,13.19
2019-05-28T06:25:01.289Z,13.51
2019-05-28T06:30:01.450Z,13.65
2019-05-28T06:35:01.595Z,13.82
2019-05-28T06:40:01.721Z,13.98
2019-05-28T06:45:01.867Z,13.88
2019-05-28T06:50:01.961Z,13.75
2019-05-28T06:55:02.141Z,13.7
2019-05-28T07:00:01.270Z,13.66
2019-05-28T07:05:01.383Z,13.5
2019-05-28T07:10:01.519Z,13.6
2019-05-28T07:15:01.990Z,13.86
2019-05-28T07:20:01.185Z,14.15
2019-05-28T07:25:01.268Z,14.36
2019-05-28T07:30:01.362Z,14.23
2019-05-28T07:35:01.499Z,14.4
2019-05-28T07:40:01.624Z,14.62
2019-05-28T07:45:02.051Z,14.8
2019-05-28T07:50:01.335Z,14.96
2019-05-28T07:55:01.506Z,15.29
2019-05-28T08:00:05.407Z,15.31
2019-05-28T08:05:01.955Z,15.31
2019-05-28T08:10:02.056Z,15.31
2019-05-28T08:15:01.199Z,15.1
2019-05-28T08:20:01.367Z,15.3
2019-05-28T08:25:01.500Z,16.21
2019-05-28T08:30:01.682Z,16.32
2019-05-28T08:35:05.348Z,15.93
2019-05-28T08:40:01.300Z,15.71
2019-05-28T08:45:01.435Z,15.31
2019-05-28T08:50:01.543Z,14.95
2019-05-28T08:55:01.736Z,15.06
2019-05-28T09:00:02.031Z,15.78
2019-05-28T09:05:01.187Z,16.87
2019-05-28T09:10:01.314Z,17.67
2019-05-28T09:15:01.463Z,17.13
2019-05-28T09:20:01.572Z,16.62
2019-05-28T09:25:01.709Z,16.39
2019-05-28T09:30:01.841Z,16.07
2019-05-28T09:35:02.915Z,16.04
2019-05-28T09:40:01.181Z,17.13
2019-05-28T09:45:01.308Z,16.61
2019-05-28T09:50:01.408Z,16.02
2019-05-28T09:55:01.523Z,16.19
2019-05-28T10:00:01.667Z,16.6
2019-05-28T10:05:01.775Z,15.92
2019-05-28T10:10:01.921Z,15.43
2019-05-28T10:15:02.139Z,15.49
2019-05-28T10:20:01.239Z,15.6
2019-05-28T10:25:01.324Z,14.92
2019-05-28T10:30:01.446Z,13.46
2019-05-28T10:35:04.226Z,11.94
2019-05-28T10:40:01.610Z,11.9
2019-05-28T10:45:01.718Z,11.93
2019-05-28T10:50:01.813Z,12.56
2019-05-28T10:55:02.908Z,13.53
2019-05-28T11:00:01.239Z,14.14
2019-05-28T11:05:01.417Z,14.23
2019-05-28T11:10:01.547Z,14.17
2019-05-28T11:15:01.714Z,13.67
2019-05-28T11:20:01.829Z,13.58
2019-05-28T11:25:01.982Z,13.65
2019-05-28T11:30:01.134Z,13.46
2019-05-28T11:35:01.267Z,13.31
2019-05-28T11:40:01.408Z,13.04
2019-05-28T11:45:01.698Z,12.74
2019-05-28T11:50:02.335Z,12.62
2019-05-28T11:55:01.670Z,12.94
2019-05-28T12:00:01.819Z,13.46
2019-05-28T12:05:02.047Z,14.13
2019-05-28T12:10:01.248Z,14.03
2019-05-28T12:15:01.529Z,14.03
2019-05-28T12:20:01.661Z,14.33
2019-05-28T12:25:02.166Z,14.21
2019-05-28T12:30:01.573Z,14.41
2019-05-28T12:35:01.700Z,14.63
2019-05-28T12:40:01.846Z,14.83
2019-05-28T12:45:09.626Z,14.95
2019-05-28T12:50:18.549Z,15.32
2019-05-28T12:55:01.334Z,15.47
2019-05-28T13:00:01.547Z,15.49
2019-05-28T13:05:01.699Z,15.73
2019-05-28T13:10:02.021Z,15.45
2019-05-28T13:15:01.456Z,15.22
2019-05-28T13:20:01.770Z,15.52
2019-05-28T13:25:01.966Z,15.75
2019-05-28T13:30:02.382Z,15.88
2019-05-28T13:35:02.302Z,15.7
2019-05-28T13:40:01.614Z,16.19
2019-05-28T13:45:02.075Z,15.75
2019-05-28T13:50:01.521Z,15.4
2019-05-28T13:55:01.808Z,15.4
2019-05-28T14:00:01.976Z,15.65
2019-05-28T14:05:01.086Z,15.89
2019-05-28T14:10:01.267Z,15.93
2019-05-28T14:15:01.416Z,15.21
2019-05-28T14:20:01.532Z,15.31
2019-05-28T14:25:01.702Z,15.18
2019-05-28T14:30:01.898Z,15.14
2019-05-28T14:35:02.005Z,15.19
2019-05-28T14:40:01.142Z,15.06
2019-05-28T14:45:01.273Z,15.09
2019-05-28T14:50:01.550Z,15.11
2019-05-28T14:55:01.689Z,15.1
2019-05-28T15:00:03.163Z,15.14
2019-05-28T15:05:01.681Z,14.78
2019-05-28T15:10:01.812Z,14.6
2019-05-28T15:15:01.954Z,14.43
2019-05-28T15:20:02.057Z,14.32
2019-05-28T15:25:01.190Z,14.11
2019-05-28T15:30:01.386Z,13.79
2019-05-28T15:35:01.531Z,13.65
2019-05-28T15:40:01.686Z,13.51
2019-05-28T15:45:01.826Z,13.47
2019-05-28T15:50:01.958Z,13.52
2019-05-28T15:55:02.088Z,13.55
2019-05-28T16:00:01.221Z,13.52
2019-05-28T16:05:01.356Z,13.41
2019-05-28T16:10:01.511Z,13.44
2019-05-28T16:15:01.635Z,13.63
2019-05-28T16:20:01.755Z,13.81
2019-05-28T16:25:01.891Z,13.9
2019-05-28T16:30:02.048Z,14.08
2019-05-28T16:35:01.150Z,14.29
2019-05-28T16:40:14.479Z,14.19
2019-05-28T16:45:01.368Z,13.96
2019-05-28T16:50:01.874Z,13.83
2019-05-28T16:55:01.167Z,13.56
2019-05-28T17:00:01.309Z,13.2
2019-05-28T17:05:01.421Z,12.73
2019-05-28T17:10:01.576Z,12.64
2019-05-28T17:15:01.721Z,12.52
2019-05-28T17:20:01.859Z,12.43
2019-05-28T17:25:01.996Z,12.35
2019-05-28T17:30:16.851Z,12.27
2019-05-28T17:35:01.958Z,12.16
2019-05-28T17:40:02.105Z,12.12
2019-05-28T17:45:01.235Z,12.18
2019-05-28T17:50:01.359Z,12.19
2019-05-28T17:55:01.539Z,12.22
2019-05-28T18:00:01.674Z,12.12
2019-05-28T18:05:02.226Z,12.03
2019-05-28T18:10:01.613Z,11.92
2019-05-28T18:15:01.708Z,11.94
2019-05-28T18:20:01.824Z,11.94
2019-05-28T18:25:01.911Z,11.97
2019-05-28T18:30:02.046Z,11.9
2019-05-28T18:35:01.204Z,11.92
2019-05-28T18:40:01.356Z,11.94
2019-05-28T18:45:01.493Z,11.88
2019-05-28T18:50:03.120Z,11.83
2019-05-28T18:55:02.956Z,11.77
2019-05-28T19:00:01.758Z,11.76
2019-05-28T19:05:01.891Z,11.78
2019-05-28T19:10:02.041Z,11.84
2019-05-28T19:15:01.180Z,11.98
2019-05-28T19:20:01.301Z,11.99
2019-05-28T19:25:01.393Z,12.12
2019-05-28T19:30:01.545Z,12.11
2019-05-28T19:35:01.759Z,12.16
2019-05-28T19:40:01.996Z,12.12
2019-05-28T19:45:01.133Z,12.07
2019-05-28T19:50:01.381Z,12.02
2019-05-28T19:55:01.564Z,11.96
2019-05-28T20:00:01.695Z,11.91
2019-05-28T20:05:01.830Z,11.92
2019-05-28T20:10:02.188Z,11.87
2019-05-28T20:15:01.818Z,11.85
2019-05-28T20:20:02.128Z,11.85
2019-05-28T20:25:01.281Z,11.85
2019-05-28T20:30:01.450Z,11.84
2019-05-28T20:35:01.590Z,11.84
2019-05-28T20:40:02.224Z,11.87
2019-05-28T20:45:02.476Z,11.89
2019-05-28T20:50:04.361Z,11.86
2019-05-28T20:55:01.770Z,11.92
2019-05-28T21:00:01.900Z,11.86
2019-05-28T21:05:02.008Z,11.77
2019-05-28T21:10:01.153Z,11.72
2019-05-28T21:15:01.272Z,11.7
2019-05-28T21:20:01.412Z,11.7
2019-05-28T21:25:01.537Z,11.75
2019-05-28T21:30:01.728Z,11.72
2019-05-28T21:35:02.770Z,11.7
2019-05-28T21:40:02.167Z,11.69
2019-05-28T21:45:02.538Z,11.66
2019-05-28T21:50:02.843Z,11.64
2019-05-28T21:55:03.493Z,11.7
2019-05-28T22:00:02.364Z,11.67
2019-05-28T22:05:03.450Z,11.62
2019-05-28T22:10:02.391Z,11.64
2019-05-28T22:15:02.236Z,11.61
2019-05-28T22:20:02.610Z,11.64
2019-05-28T22:25:02.700Z,11.63
2019-05-28T22:30:04.299Z,11.57
2019-05-28T22:35:02.076Z,11.53
2019-05-28T22:40:01.454Z,11.43
2019-05-28T22:45:01.624Z,11.44
2019-05-28T22:50:18.005Z,11.4
2019-05-28T22:55:01.804Z,11.37
2019-05-28T23:00:03.097Z,11.43
2019-05-28T23:05:01.280Z,11.41
2019-05-28T23:10:01.652Z,11.39
2019-05-28T23:15:02.007Z,11.34
2019-05-28T23:20:02.740Z,11.38
2019-05-28T23:25:03.212Z,11.34
2019-05-28T23:30:06.905Z,11.32
2019-05-28T23:35:02.516Z,11.34
2019-05-28T23:40:03.051Z,11.31
2019-05-28T23:45:01.269Z,11.29
2019-05-28T23:50:01.388Z,11.3
2019-05-28T23:55:01.513Z,11.27
